Cass, West Virginia
Current Conditions -  °F | °C
As of 9:15 AM on Thursday 29 Jan 2015 (Local Time) from KHSP Reporting Station
Clear Clear  
Wind Chill: 19°   Ceiling: Unl
Heat Index: 28°   Visibility: 10mi
Dew Point: 13°   Wind: 10mph
Humidity: 52%   Direction: 180°S
Pressure: 30.07"   Gusts: NA
Location:  38.4°N, 79.91°W
Report Text: KHSP 291415Z AUTO 18009KT 10SM CLR M02/M11 A3007 RMK AO2 T10201106
Loading
Personal Weather Stations






























Interactive Weather Map New forecast layout! Learn more

10-Day Weather Forecast

Advertisements
Track Severe Weather on mobile